Time;durP1;ratioP1;P1;durP2;ratioP2;P2;SDS_P1;SDS_P2;PMS_P1;PMS_P2;Temp;Humidity;BMP_temperature;BMP_pressure;BME280_temperature;BME280_humidity;BME280_pressure;Samples;Min_cycle;Max_cycle;Signal;HPM_P1;HPM_P2
2021/09/27 00:00:40;;;;;;;38.75;34.70;;;15.60;99.90;;;;;;5147651;27;20050;-42
2021/09/27 00:03:07;;;;;;;40.47;36.25;;;15.60;99.90;;;;;;5148901;27;20068;-44
2021/09/27 00:05:34;;;;;;;34.78;31.40;;;15.60;99.90;;;;;;5141987;27;20794;-41
2021/09/27 00:08:05;;;;;;;38.25;34.17;;;15.60;99.90;;;;;;5148422;27;20050;-43
2021/09/27 00:10:38;;;;;;;40.87;36.67;;;15.60;99.90;;;;;;5120709;27;20055;-42
2021/09/27 00:13:05;;;;;;;38.10;34.10;;;15.60;99.90;;;;;;5135663;27;20320;-42
2021/09/27 00:15:36;;;;;;;36.75;33.08;;;15.60;99.90;;;;;;5146726;27;20058;-42
2021/09/27 00:18:03;;;;;;;38.70;34.70;;;15.60;99.90;;;;;;5148345;27;20055;-42
2021/09/27 00:20:29;;;;;;;37.50;33.55;;;15.60;99.90;;;;;;5146221;27;20119;-43
2021/09/27 00:22:57;;;;;;;42.55;37.58;;;15.60;99.90;;;;;;5150558;27;20457;-41
2021/09/27 00:25:26;;;;;;;38.42;34.35;;;15.50;99.90;;;;;;5149747;27;20089;-47
2021/09/27 00:27:53;;;;;;;41.80;36.78;;;15.60;99.90;;;;;;5149338;27;20054;-41
2021/09/27 00:30:20;;;;;;;41.00;36.83;;;15.60;99.90;;;;;;5147527;27;20044;-42
2021/09/27 00:32:47;;;;;;;37.47;33.40;;;15.60;99.90;;;;;;5149864;27;20054;-44
2021/09/27 00:35:17;;;;;;;41.53;36.90;;;15.50;99.90;;;;;;5143461;27;20451;-43
2021/09/27 00:37:43;;;;;;;41.05;36.60;;;15.50;99.90;;;;;;5147469;27;20126;-41
2021/09/27 00:40:18;;;;;;;37.10;33.50;;;15.60;99.90;;;;;;5150252;27;20855;-40
2021/09/27 00:42:45;;;;;;;39.85;35.58;;;15.50;99.90;;;;;;5129003;27;20054;-41
2021/09/27 00:45:13;;;;;;;41.75;36.38;;;15.50;99.90;;;;;;5149577;27;20047;-41
2021/09/27 00:47:39;;;;;;;37.70;33.85;;;15.40;99.90;;;;;;5147106;27;20057;-41
2021/09/27 00:50:08;;;;;;;39.58;35.33;;;15.50;99.90;;;;;;5142319;27;20051;-44
2021/09/27 00:52:36;;;;;;;37.63;33.38;;;15.40;99.90;;;;;;5139553;27;20137;-41
2021/09/27 00:55:07;;;;;;;43.38;35.97;;;15.40;99.90;;;;;;5150180;27;20054;-40
2021/09/27 00:57:33;;;;;;;36.42;32.50;;;15.40;99.90;;;;;;5148908;27;20055;-41
2021/09/27 00:59:59;;;;;;;35.53;32.03;;;15.30;99.90;;;;;;5149057;27;20043;-40
2021/09/27 01:02:28;;;;;;;41.22;36.63;;;15.30;99.90;;;;;;5148371;27;20089;-43
2021/09/27 01:04:57;;;;;;;35.58;31.75;;;15.30;99.90;;;;;;5137860;27;20074;-45
2021/09/27 01:07:29;;;;;;;38.88;34.50;;;15.20;99.90;;;;;;5155167;27;20149;-40
2021/09/27 01:10:38;;;;;;;36.17;32.42;;;15.20;99.90;;;;;;5148159;27;20057;-43
2021/09/27 01:13:38;;;;;;;36.42;32.60;;;15.10;99.90;;;;;;5149967;27;20062;-41
2021/09/27 01:16:04;;;;;;;37.17;33.38;;;15.20;99.90;;;;;;5133031;27;20388;-43
2021/09/27 01:18:58;;;;;;;41.05;36.55;;;15.10;99.90;;;;;;5146659;27;20055;-42
2021/09/27 01:21:47;;;;;;;36.53;32.33;;;15.10;99.90;;;;;;5150256;27;20043;-41
2021/09/27 01:24:35;;;;;;;40.90;34.92;;;15.00;99.90;;;;;;5130262;27;20043;-41
2021/09/27 01:27:23;;;;;;;36.95;32.95;;;14.90;99.90;;;;;;5146637;27;20053;-43
2021/09/27 01:29:54;;;;;;;36.58;32.80;;;14.90;99.90;;;;;;5150156;27;20103;-43
2021/09/27 01:32:42;;;;;;;34.72;31.13;;;14.80;99.90;;;;;;5148869;27;20105;-41
2021/09/27 01:35:27;;;;;;;37.35;32.63;;;14.80;99.90;;;;;;5141109;27;20055;-42
2021/09/27 01:38:29;;;;;;;38.05;32.38;;;14.80;99.90;;;;;;5151096;27;20054;-44
2021/09/27 01:41:18;;;;;;;33.88;30.55;;;14.70;99.90;;;;;;5069394;28;20052;-41
2021/09/27 01:43:53;;;;;;;39.58;32.45;;;14.70;99.90;;;;;;5068522;28;20131;-41
2021/09/27 01:46:32;;;;;;;32.00;28.63;;;14.70;99.90;;;;;;5065576;28;20123;-40
2021/09/27 01:49:10;;;;;;;33.15;29.50;;;14.70;99.90;;;;;;5058419;28;20048;-43
2021/09/27 01:51:56;;;;;;;36.00;30.27;;;14.60;99.90;;;;;;5050613;28;20049;-43
2021/09/27 01:54:29;;;;;;;40.63;33.63;;;14.60;99.90;;;;;;5049413;28;20570;-40
2021/09/27 01:57:16;;;;;;;42.28;35.65;;;14.60;99.90;;;;;;5063487;28;20053;-41
2021/09/27 02:00:10;;;;;;;41.75;33.95;;;14.60;99.90;;;;;;5067436;28;20059;-41
2021/09/27 02:03:17;;;;;;;40.70;35.67;;;14.60;99.90;;;;;;5060653;28;20084;-42
2021/09/27 02:06:05;;;;;;;44.67;38.58;;;14.60;99.90;;;;;;5037468;28;20049;-41
2021/09/27 02:08:46;;;;;;;53.03;40.58;;;14.60;99.90;;;;;;5029482;28;20136;-41
2021/09/27 02:11:23;;;;;;;39.47;35.17;;;14.70;99.90;;;;;;5047384;28;20057;-41
2021/09/27 02:14:15;;;;;;;44.67;35.25;;;14.60;99.90;;;;;;5049965;28;20072;-41
2021/09/27 02:17:09;;;;;;;52.58;40.80;;;14.70;99.90;;;;;;5081277;28;20496;-44
2021/09/27 02:19:51;;;;;;;45.83;38.65;;;14.70;99.90;;;;;;5064893;28;20165;-42
2021/09/27 02:22:17;;;;;;;;;;;14.70;99.90;;;;;;5065308;28;20613;-41
2021/09/27 02:25:13;;;;;;;42.42;37.03;;;14.70;99.90;;;;;;5066735;28;19924;-41
2021/09/27 02:27:40;;;;;;;39.88;35.63;;;14.70;99.90;;;;;;5070111;28;20049;-44
2021/09/27 02:30:10;;;;;;;41.30;36.92;;;14.70;99.90;;;;;;5067390;28;20061;-45
2021/09/27 02:32:46;;;;;;;45.38;38.50;;;14.70;99.90;;;;;;5067656;28;20063;-42
2021/09/27 02:35:23;;;;;;;44.45;38.60;;;14.70;99.90;;;;;;5065408;28;20516;-41
2021/09/27 02:38:03;;;;;;;46.00;40.53;;;14.70;99.90;;;;;;5048986;28;20075;-41
2021/09/27 02:40:47;;;;;;;55.05;42.63;;;14.70;99.90;;;;;;5040296;28;20469;-42
2021/09/27 02:43:16;;;;;;;45.85;37.45;;;14.70;99.90;;;;;;5026515;28;20049;-42
2021/09/27 02:45:45;;;;;;;46.55;38.97;;;14.60;99.90;;;;;;5046693;28;20048;-41
2021/09/27 02:48:19;;;;;;;40.30;34.97;;;14.70;99.90;;;;;;5046514;28;20064;-43
2021/09/27 02:50:52;;;;;;;50.28;38.53;;;14.60;99.90;;;;;;5041487;28;20052;-41
2021/09/27 02:53:20;;;;;;;48.10;38.95;;;14.60;99.90;;;;;;5085387;27;20043;-41
2021/09/27 02:56:04;;;;;;;45.45;36.83;;;14.50;99.90;;;;;;5141594;27;20058;-41
2021/09/27 02:58:39;;;;;;;41.80;37.30;;;14.50;99.90;;;;;;5100712;27;20047;-40
2021/09/27 03:01:11;;;;;;;43.72;36.67;;;14.50;99.90;;;;;;5144784;27;20051;-41
2021/09/27 03:03:57;;;;;;;;;;;14.40;99.90;;;;;;5139131;27;20047;-40
2021/09/27 03:06:35;;;;;;;41.42;35.50;;;14.40;99.90;;;;;;5143178;27;19965;-43
2021/09/27 03:09:04;;;;;;;41.67;36.08;;;14.40;99.90;;;;;;5139964;27;20047;-43
2021/09/27 03:12:19;;;;;;;42.85;37.78;;;14.30;99.90;;;;;;5142194;27;20131;-40
2021/09/27 03:14:57;;;;;;;47.38;38.15;;;14.30;99.90;;;;;;5045114;28;20087;-41
2021/09/27 03:17:56;;;;;;;56.75;41.83;;;14.40;99.90;;;;;;5045373;28;20056;-41
2021/09/27 03:20:46;;;;;;;48.72;39.83;;;14.40;99.90;;;;;;4983970;28;20194;-43
2021/09/27 03:23:40;;;;;;;51.28;40.42;;;14.40;99.90;;;;;;4985350;28;20564;-41
2021/09/27 03:26:45;;;;;;;47.78;39.13;;;14.40;99.90;;;;;;4983868;28;20068;-40
2021/09/27 03:29:14;;;;;;;46.13;38.42;;;14.40;99.90;;;;;;4983315;28;20541;-41
2021/09/27 03:32:09;;;;;;;51.65;39.03;;;14.40;99.90;;;;;;4985395;28;20133;-42
2021/09/27 03:34:44;;;;;;;46.92;38.70;;;14.40;99.90;;;;;;4985554;28;20054;-42
2021/09/27 03:37:30;;;;;;;46.08;38.47;;;14.40;99.90;;;;;;4984997;28;20054;-41
2021/09/27 03:40:04;;;;;;;46.20;37.30;;;14.40;99.90;;;;;;4985938;28;20221;-44
2021/09/27 03:42:58;;;;;;;50.15;40.58;;;14.30;99.90;;;;;;4970229;28;20058;-42
2021/09/27 03:45:55;;;;;;;48.63;39.22;;;14.30;99.90;;;;;;4985898;28;20062;-43
2021/09/27 03:48:30;;;;;;;52.50;40.30;;;14.40;99.90;;;;;;4987015;28;20668;-42
2021/09/27 03:51:12;;;;;;;50.55;41.15;;;14.30;99.90;;;;;;5010628;28;20055;-46
2021/09/27 03:53:46;;;;;;;50.63;39.80;;;14.40;99.90;;;;;;5060906;28;20074;-43
2021/09/27 03:56:27;;;;;;;54.83;41.50;;;14.40;99.90;;;;;;5071637;27;20529;-42
2021/09/27 03:59:17;;;;;;;50.95;40.25;;;14.40;99.90;;;;;;5141604;27;20545;-44
2021/09/27 04:01:55;;;;;;;50.63;39.20;;;14.30;99.90;;;;;;5138111;27;20055;-41
2021/09/27 04:04:51;;;;;;;49.20;40.70;;;14.30;99.90;;;;;;5144598;27;20082;-44
2021/09/27 04:07:33;;;;;;;55.60;40.70;;;14.30;99.90;;;;;;5138854;27;20491;-43
2021/09/27 04:10:29;;;;;;;55.70;43.00;;;14.30;99.90;;;;;;5139430;27;20182;-41
2021/09/27 04:13:03;;;;;;;54.60;42.60;;;14.40;99.90;;;;;;5044485;28;20497;-43
2021/09/27 04:16:00;;;;;;;52.88;41.45;;;14.30;99.90;;;;;;5053341;28;20917;-42
2021/09/27 04:18:57;;;;;;;49.85;38.20;;;14.40;99.90;;;;;;5054887;28;20054;-40
2021/09/27 04:21:42;;;;;;;52.58;39.35;;;14.30;99.90;;;;;;5055690;28;20048;-43
2021/09/27 04:24:35;;;;;;;50.85;39.53;;;14.30;99.90;;;;;;5039684;28;20181;-42
2021/09/27 04:27:40;;;;;;;52.05;38.30;;;14.30;99.90;;;;;;5054589;28;20063;-42
2021/09/27 04:30:09;;;;;;;49.10;38.00;;;14.30;99.90;;;;;;5048237;28;20501;-41
2021/09/27 04:32:35;;;;;;;57.40;41.58;;;14.20;99.90;;;;;;5056115;28;20098;-41
2021/09/27 04:35:32;;;;;;;52.53;39.92;;;14.20;99.90;;;;;;5053572;28;20163;-42
2021/09/27 04:38:00;;;;;;;56.53;40.42;;;14.30;99.90;;;;;;5054672;28;20089;-41
2021/09/27 04:40:53;;;;;;;55.67;40.88;;;14.30;99.90;;;;;;5047137;28;20061;-41
2021/09/27 04:43:45;;;;;;;52.05;40.65;;;14.30;99.90;;;;;;5055512;28;20080;-43
2021/09/27 04:46:11;;;;;;;;;;;14.30;99.90;;;;;;5053648;28;20064;-44
2021/09/27 04:49:03;;;;;;;44.90;36.92;;;14.20;99.90;;;;;;5056085;28;19928;-42
2021/09/27 04:52:09;;;;;;;63.53;42.42;;;14.30;99.90;;;;;;5146775;27;20050;-45
2021/09/27 04:55:01;;;;;;;54.75;40.50;;;14.20;99.90;;;;;;5034703;28;20053;-44
2021/09/27 04:58:11;;;;;;;51.72;39.85;;;14.30;99.90;;;;;;5036489;28;20050;-39
2021/09/27 05:01:18;;;;;;;47.63;38.72;;;14.40;99.90;;;;;;5041039;28;20044;-41
2021/09/27 05:03:59;;;;;;;43.03;36.55;;;14.50;99.90;;;;;;5039401;28;20057;-40
2021/09/27 05:06:55;;;;;;;44.25;35.97;;;14.50;99.90;;;;;;5039166;28;20119;-44
2021/09/27 05:09:39;;;;;;;41.05;34.83;;;14.60;99.90;;;;;;5039869;28;20053;-45
2021/09/27 05:12:42;;;;;;;42.92;36.60;;;14.60;99.90;;;;;;5036918;28;20064;-47
2021/09/27 05:15:32;;;;;;;39.80;35.53;;;14.60;99.90;;;;;;5042135;28;20576;-48
2021/09/27 05:18:22;;;;;;;42.78;37.50;;;14.60;99.90;;;;;;5035325;28;20041;-46
2021/09/27 05:21:09;;;;;;;47.72;37.85;;;14.50;99.90;;;;;;5038321;28;20053;-47
2021/09/27 05:24:12;;;;;;;44.95;37.38;;;14.60;99.90;;;;;;5037972;28;20048;-46
2021/09/27 05:26:57;;;;;;;45.47;36.38;;;14.60;99.90;;;;;;5029300;28;20045;-46
2021/09/27 05:29:53;;;;;;;48.80;37.20;;;14.50;99.90;;;;;;5033216;28;20644;-46
2021/09/27 05:32:37;;;;;;;52.17;37.40;;;14.60;99.90;;;;;;5096144;28;20059;-45
2021/09/27 05:35:18;;;;;;;102.43;91.28;;;14.60;99.90;;;;;;5101223;28;20059;-45
2021/09/27 05:38:31;;;;;;;274.02;244.98;;;14.60;99.90;;;;;;5105172;28;20128;-48
2021/09/27 05:41:17;;;;;;;54.97;47.33;;;14.60;99.90;;;;;;5084902;28;20052;-47
2021/09/27 05:44:16;;;;;;;58.47;51.42;;;14.60;99.90;;;;;;5086136;28;20044;-45
2021/09/27 05:47:15;;;;;;;50.38;38.33;;;14.60;99.90;;;;;;5075832;28;20045;-45
2021/09/27 05:50:08;;;;;;;46.65;38.05;;;14.60;99.90;;;;;;5044531;28;20106;-42
2021/09/27 05:52:59;;;;;;;47.40;37.08;;;14.60;99.90;;;;;;5025390;28;20057;-43
2021/09/27 05:55:44;;;;;;;47.80;38.75;;;14.60;99.90;;;;;;5041517;28;20078;-47
2021/09/27 05:58:32;;;;;;;45.47;37.10;;;14.70;99.90;;;;;;5042149;28;20053;-45
2021/09/27 06:01:30;;;;;;;44.45;37.75;;;14.80;99.90;;;;;;5037845;28;20053;-46
2021/09/27 06:04:31;;;;;;;47.08;38.65;;;14.70;99.90;;;;;;5026850;28;20205;-48
2021/09/27 06:07:25;;;;;;;59.63;52.17;;;14.90;99.90;;;;;;5041188;28;20045;-46
2021/09/27 06:10:17;;;;;;;52.97;39.75;;;14.90;99.90;;;;;;5040849;28;20086;-46
2021/09/27 06:13:13;;;;;;;45.35;37.70;;;15.00;99.90;;;;;;5042147;28;20100;-44
2021/09/27 06:15:48;;;;;;;44.95;36.42;;;15.10;99.90;;;;;;5042935;28;20056;-45
2021/09/27 06:18:24;;;;;;;44.22;38.85;;;15.10;99.90;;;;;;5024709;28;20076;-47
2021/09/27 06:21:02;;;;;;;46.40;38.00;;;15.20;99.90;;;;;;5028575;28;20052;-44
2021/09/27 06:23:49;;;;;;;45.92;40.92;;;15.20;99.90;;;;;;5040939;28;20054;-45
2021/09/27 06:26:23;;;;;;;41.28;34.83;;;15.30;99.90;;;;;;5057843;28;20051;-43
2021/09/27 06:29:08;;;;;;;41.10;35.50;;;15.30;99.90;;;;;;5104494;28;20097;-45
2021/09/27 06:31:52;;;;;;;44.08;35.95;;;15.40;99.90;;;;;;5123339;27;20055;-44
2021/09/27 06:34:52;;;;;;;42.47;36.38;;;15.50;99.90;;;;;;5107008;28;20496;-44
2021/09/27 06:37:23;;;;;;;44.40;38.35;;;15.50;99.90;;;;;;5058321;28;20044;-47
2021/09/27 06:39:51;;;;;;;41.50;35.50;;;15.60;99.90;;;;;;5051886;28;20057;-43
2021/09/27 06:42:18;;;;;;;40.13;35.58;;;15.60;99.90;;;;;;5059081;28;20056;-46
2021/09/27 06:44:55;;;;;;;45.20;38.95;;;15.70;99.90;;;;;;5054363;28;20576;-47
2021/09/27 06:47:22;;;;;;;43.05;35.42;;;15.80;99.90;;;;;;5056449;28;20508;-46
2021/09/27 06:49:50;;;;;;;44.97;35.88;;;15.80;99.90;;;;;;5053386;28;20078;-46
2021/09/27 06:52:17;;;;;;;43.58;35.30;;;15.80;99.90;;;;;;5056124;28;20451;-47
2021/09/27 06:54:50;;;;;;;41.53;35.30;;;15.80;99.90;;;;;;5057608;28;20526;-45
2021/09/27 06:57:21;;;;;;;42.65;34.92;;;15.90;99.90;;;;;;5041550;28;20067;-45
2021/09/27 06:59:47;;;;;;;41.63;34.78;;;16.10;99.90;;;;;;5040376;28;20088;-47
2021/09/27 07:02:13;;;;;;;44.65;33.65;;;16.30;99.90;;;;;;5036676;28;20517;-48
2021/09/27 07:04:40;;;;;;;43.13;33.70;;;16.40;99.90;;;;;;5036994;28;20509;-45
2021/09/27 07:07:09;;;;;;;41.28;34.83;;;16.40;99.90;;;;;;5035450;28;20760;-51
2021/09/27 07:09:38;;;;;;;38.22;32.50;;;16.50;99.90;;;;;;5033223;28;20052;-46
2021/09/27 07:12:14;;;;;;;44.05;35.72;;;16.60;99.90;;;;;;5031782;28;20158;-49
2021/09/27 07:14:46;;;;;;;57.28;49.80;;;16.50;99.90;;;;;;5077696;28;20051;-49
2021/09/27 07:17:18;;;;;;;44.38;34.10;;;16.60;99.90;;;;;;5106008;28;20096;-49
2021/09/27 07:19:45;;;;;;;80.28;71.60;;;16.50;99.90;;;;;;5107651;28;20059;-47
2021/09/27 07:22:14;;;;;;;48.65;42.70;;;16.60;99.90;;;;;;5125037;27;20079;-47
2021/09/27 07:24:40;;;;;;;49.95;44.58;;;16.80;99.90;;;;;;5097430;28;20047;-43
2021/09/27 07:27:06;;;;;;;39.60;35.00;;;16.80;99.90;;;;;;5100544;28;20051;-51
2021/09/27 07:29:34;;;;;;;37.92;31.80;;;16.90;99.90;;;;;;5104066;28;20119;-46
2021/09/27 07:32:07;;;;;;;35.90;31.58;;;16.90;99.90;;;;;;5102529;28;20051;-50
2021/09/27 07:34:36;;;;;;;34.85;31.23;;;16.90;99.90;;;;;;5105862;28;20071;-47
2021/09/27 07:37:06;;;;;;;33.80;30.05;;;16.80;99.90;;;;;;5103775;28;20464;-49
2021/09/27 07:39:40;;;;;;;41.40;37.00;;;16.90;99.90;;;;;;5104301;28;20055;-49
2021/09/27 07:42:10;;;;;;;57.88;51.72;;;17.00;99.90;;;;;;5108249;28;20541;-49
2021/09/27 07:44:37;;;;;;;32.38;29.08;;;17.00;99.90;;;;;;5108187;28;20080;-46
2021/09/27 07:47:06;;;;;;;39.08;34.85;;;17.40;99.90;;;;;;5106150;28;20342;-49
2021/09/27 07:49:40;;;;;;;37.80;33.97;;;17.70;99.90;;;;;;5107752;28;20050;-48
2021/09/27 07:52:06;;;;;;;28.20;24.92;;;18.30;99.90;;;;;;5108990;28;20083;-51
2021/09/27 07:54:39;;;;;;;25.95;23.17;;;18.70;99.90;;;;;;5108380;28;20445;-51
2021/09/27 07:57:09;;;;;;;25.77;23.15;;;18.90;99.90;;;;;;5132320;27;20058;-49
2021/09/27 07:59:40;;;;;;;24.27;21.95;;;19.10;99.90;;;;;;5149255;27;20035;-49
2021/09/27 08:02:18;;;;;;;25.25;22.67;;;18.80;99.90;;;;;;5129908;27;20058;-50
2021/09/27 08:04:45;;;;;;;23.88;21.52;;;19.00;99.90;;;;;;5144487;27;20125;-50
2021/09/27 08:07:12;;;;;;;24.00;21.70;;;18.80;99.90;;;;;;5132970;27;20082;-50
2021/09/27 08:09:41;;;;;;;26.20;23.63;;;18.70;99.90;;;;;;5149976;27;20046;-50
2021/09/27 08:12:09;;;;;;;28.65;25.83;;;18.70;99.90;;;;;;5147603;27;20050;-48
2021/09/27 08:14:39;;;;;;;40.65;36.58;;;18.60;99.90;;;;;;5149664;27;20089;-50
2021/09/27 08:17:06;;;;;;;23.30;20.90;;;18.50;99.90;;;;;;5148404;27;20405;-48
2021/09/27 08:19:42;;;;;;;23.90;21.15;;;18.40;99.90;;;;;;5143891;27;20563;-47
2021/09/27 08:22:13;;;;;;;26.60;24.05;;;18.50;99.90;;;;;;5139258;27;20050;-50
2021/09/27 08:24:42;;;;;;;23.70;21.42;;;18.50;99.90;;;;;;5138545;27;20447;-50
2021/09/27 08:27:08;;;;;;;23.70;21.25;;;18.90;99.90;;;;;;5135085;27;20066;-48
2021/09/27 08:29:40;;;;;;;21.13;19.08;;;19.20;99.90;;;;;;5140966;27;20082;-52
2021/09/27 08:32:06;;;;;;;20.60;18.70;;;19.90;99.90;;;;;;5130331;27;20501;-47
2021/09/27 08:34:41;;;;;;;21.08;19.15;;;20.50;99.90;;;;;;5136361;27;20043;-47
2021/09/27 08:37:10;;;;;;;20.42;18.27;;;21.10;99.90;;;;;;5137952;27;20047;-50
2021/09/27 08:39:40;;;;;;;19.33;17.52;;;21.70;99.90;;;;;;5130778;27;20047;-52
2021/09/27 08:42:23;;;;;;;21.25;19.25;;;21.30;99.90;;;;;;5148429;27;20057;-49
2021/09/27 08:45:28;;;;;;;30.95;23.25;;;21.00;99.90;;;;;;5149881;27;20050;-51
2021/09/27 08:48:15;;;;;;;19.27;17.33;;;20.70;99.90;;;;;;5065370;28;20123;-49
2021/09/27 08:50:47;;;;;;;18.45;16.67;;;20.80;99.90;;;;;;5048714;28;20053;-48
2021/09/27 08:53:25;;;;;;;18.88;17.08;;;21.40;99.90;;;;;;5052404;28;20064;-48
2021/09/27 08:55:57;;;;;;;18.67;16.88;;;21.90;99.90;;;;;;5032060;28;20595;-47
2021/09/27 08:58:43;;;;;;;17.88;16.35;;;22.30;99.90;;;;;;5030320;28;20057;-49
2021/09/27 09:01:16;;;;;;;18.73;15.88;;;22.70;99.90;;;;;;5033099;28;20053;-49
2021/09/27 09:04:26;;;;;;;17.60;15.90;;;22.40;99.90;;;;;;5029614;28;20136;-50
2021/09/27 09:06:58;;;;;;;17.58;15.77;;;21.90;99.90;;;;;;5017471;28;20053;-49
2021/09/27 09:09:39;;;;;;;17.95;16.35;;;21.70;99.90;;;;;;5015871;28;20058;-46
2021/09/27 09:12:16;;;;;;;17.85;16.15;;;21.70;99.90;;;;;;5012886;28;20653;-48
2021/09/27 09:14:51;;;;;;;17.08;15.57;;;22.10;99.90;;;;;;5020319;28;20057;-49
2021/09/27 09:17:37;;;;;;;18.38;16.48;;;22.60;99.90;;;;;;5016390;28;20824;-46
2021/09/27 09:20:21;;;;;;;24.52;22.10;;;22.90;99.90;;;;;;4995280;28;20053;-46
2021/09/27 09:22:50;;;;;;;30.25;27.15;;;23.40;99.90;;;;;;5054714;28;20059;-50
2021/09/27 09:25:24;;;;;;;17.50;15.98;;;23.80;99.90;;;;;;5063126;28;20045;-49
2021/09/27 09:27:51;;;;;;;17.45;14.25;;;23.60;99.90;;;;;;5049994;28;20122;-49
2021/09/27 09:30:26;;;;;;;17.48;15.77;;;23.80;99.90;;;;;;5054632;28;20059;-46
2021/09/27 09:32:56;;;;;;;17.27;15.77;;;23.80;99.90;;;;;;5064200;28;20131;-47
2021/09/27 09:35:27;;;;;;;23.85;21.58;;;24.00;99.90;;;;;;5062650;28;20132;-48
2021/09/27 09:38:01;;;;;;;15.05;13.65;;;23.50;99.90;;;;;;5047577;28;20053;-48
2021/09/27 09:40:50;;;;;;;20.05;18.10;;;23.70;99.90;;;;;;5092708;27;20047;-46
2021/09/27 09:43:27;;;;;;;18.38;16.63;;;23.70;99.90;;;;;;5139010;27;20070;-47
2021/09/27 09:46:08;;;;;;;18.45;14.43;;;23.50;99.90;;;;;;5139920;27;20055;-47
2021/09/27 09:49:07;;;;;;;15.80;14.23;;;23.40;99.90;;;;;;5135607;27;20078;-47
2021/09/27 09:51:45;;;;;;;15.77;14.25;;;23.50;99.90;;;;;;5134098;27;20059;-50
2021/09/27 09:54:21;;;;;;;14.98;13.45;;;23.40;99.90;;;;;;5150722;27;20098;-48
2021/09/27 09:57:06;;;;;;;14.80;13.32;;;23.50;99.90;;;;;;5150617;27;20066;-45
2021/09/27 09:59:38;;;;;;;13.00;11.80;;;24.10;99.90;;;;;;5124445;27;20062;-51
2021/09/27 10:02:18;;;;;;;14.00;12.60;;;25.20;99.90;;;;;;5128314;27;20079;-44
2021/09/27 10:05:07;;;;;;;12.88;11.57;;;25.60;99.90;;;;;;5142894;27;20074;-46
2021/09/27 10:07:55;;;;;;;11.93;10.82;;;25.40;99.90;;;;;;5145054;27;20047;-47
2021/09/27 10:10:36;;;;;;;12.23;10.93;;;24.90;99.90;;;;;;5141555;27;20051;-46
2021/09/27 10:13:05;;;;;;;12.32;11.02;;;24.60;99.90;;;;;;5146970;27;20106;-47
2021/09/27 10:15:34;;;;;;;12.80;11.40;;;24.20;99.90;;;;;;5148064;27;20050;-44
2021/09/27 10:18:05;;;;;;;12.40;11.30;;;23.90;99.90;;;;;;5121351;27;20086;-45
2021/09/27 10:20:40;;;;;;;11.68;10.48;;;23.90;99.90;;;;;;5142018;27;20065;-47
2021/09/27 10:23:11;;;;;;;12.60;11.30;;;23.90;99.90;;;;;;5143997;27;20043;-46
2021/09/27 10:25:45;;;;;;;11.50;10.40;;;23.80;99.90;;;;;;5140150;27;20439;-48
2021/09/27 10:28:17;;;;;;;11.52;10.38;;;23.90;99.90;;;;;;5145162;27;20043;-46
2021/09/27 10:30:50;;;;;;;11.50;10.35;;;24.20;99.90;;;;;;5143674;27;20046;-47
2021/09/27 10:33:27;;;;;;;10.43;9.35;;;24.90;99.90;;;;;;5146345;27;20094;-47
2021/09/27 10:36:00;;;;;;;13.45;10.30;;;25.40;99.90;;;;;;5142560;27;21602;-51
2021/09/27 10:38:45;;;;;;;11.00;9.82;;;25.60;99.90;;;;;;5134344;27;20059;-45
2021/09/27 10:41:38;;;;;;;10.15;9.15;;;25.40;99.90;;;;;;5130274;27;20058;-45
2021/09/27 10:44:13;;;;;;;13.70;12.38;;;26.00;99.90;;;;;;5135741;27;20047;-48
2021/09/27 10:46:46;;;;;;;27.48;24.83;;;25.80;99.90;;;;;;5117558;27;20085;-46
2021/09/27 10:49:35;;;;;;;10.23;9.13;;;25.70;99.90;;;;;;5141794;27;20537;-45
2021/09/27 10:52:17;;;;;;;10.98;9.13;;;25.40;99.90;;;;;;5143196;27;20088;-43
2021/09/27 10:55:02;;;;;;;12.80;10.18;;;24.80;99.90;;;;;;5126088;27;20418;-47
2021/09/27 10:57:59;;;;;;;11.65;8.95;;;24.70;99.90;;;;;;5142436;27;20123;-44
2021/09/27 11:00:53;;;;;;;9.85;8.85;;;24.50;99.90;;;;;;5141304;27;20099;-47
2021/09/27 11:03:31;;;;;;;11.07;9.00;;;24.30;99.90;;;;;;5119219;27;20121;-48
2021/09/27 11:06:22;;;;;;;10.32;9.27;;;24.00;99.90;;;;;;5144051;27;20047;-46
2021/09/27 11:08:59;;;;;;;10.35;9.05;;;23.90;99.90;;;;;;5140991;27;20049;-47
2021/09/27 11:11:30;;;;;;;16.85;14.95;;;24.20;99.90;;;;;;5122901;27;20047;-48
2021/09/27 11:13:58;;;;;;;;;;;24.50;99.90;;;;;;5136013;27;20043;-43
2021/09/27 11:16:32;;;;;;;9.75;8.82;;;24.80;99.90;;;;;;5140002;27;19987;-44
2021/09/27 11:19:12;;;;;;;10.43;8.35;;;25.50;99.90;;;;;;5138455;27;20046;-44
2021/09/27 11:21:47;;;;;;;9.40;8.02;;;25.20;99.00;;;;;;5116970;27;20559;-43
2021/09/27 11:24:17;;;;;;;10.23;8.45;;;25.50;99.90;;;;;;5124227;27;20111;-50
2021/09/27 11:27:16;;;;;;;10.48;7.95;;;25.20;99.90;;;;;;5138936;27;20047;-47
2021/09/27 11:29:59;;;;;;;8.45;7.55;;;24.80;99.90;;;;;;5124311;27;20057;-54
2021/09/27 11:32:36;;;;;;;9.20;8.30;;;23.90;99.90;;;;;;5143444;27;20403;-47
2021/09/27 11:35:08;;;;;;;9.13;7.75;;;23.50;99.90;;;;;;5140435;27;20054;-47
2021/09/27 11:37:54;;;;;;;8.93;7.97;;;23.10;99.90;;;;;;5139947;27;20139;-47
2021/09/27 11:40:23;;;;;;;10.68;9.57;;;23.00;99.90;;;;;;5139837;27;20054;-47
2021/09/27 11:43:04;;;;;;;10.07;7.78;;;23.10;99.90;;;;;;5138433;27;20077;-49
2021/09/27 11:45:34;;;;;;;9.60;7.47;;;23.20;99.90;;;;;;5144526;27;20058;-45
2021/09/27 11:48:11;;;;;;;9.30;6.35;;;23.00;99.90;;;;;;5131887;27;20476;-44
2021/09/27 11:50:51;;;;;;;8.55;7.53;;;23.30;99.90;;;;;;5137128;27;20181;-48
2021/09/27 11:54:05;;;;;;;9.18;6.65;;;23.10;99.90;;;;;;5146962;27;20128;-48
2021/09/27 11:56:39;;;;;;;8.18;6.78;;;23.10;99.90;;;;;;5126615;27;20069;-44
2021/09/27 11:59:24;;;;;;;7.57;6.70;;;22.90;99.90;;;;;;5144329;27;20055;-44
2021/09/27 12:02:11;;;;;;;9.10;5.95;;;22.60;99.90;;;;;;5135895;27;20096;-50
2021/09/27 12:05:10;;;;;;;8.43;6.65;;;22.50;99.90;;;;;;5143574;27;20043;-49
2021/09/27 12:07:44;;;;;;;9.25;6.65;;;22.30;99.90;;;;;;5121189;27;20079;-49
2021/09/27 12:10:22;;;;;;;9.02;6.50;;;22.30;99.90;;;;;;5142096;27;20078;-50
2021/09/27 12:12:59;;;;;;;10.82;6.72;;;22.30;99.90;;;;;;5141894;27;20058;-49
2021/09/27 12:15:37;;;;;;;15.20;12.05;;;22.50;99.90;;;;;;5140274;27;20453;-54
2021/09/27 12:18:04;;;;;;;20.98;18.25;;;22.50;99.90;;;;;;5142096;27;20050;-53
2021/09/27 12:20:39;;;;;;;38.58;34.55;;;22.50;99.90;;;;;;5141336;27;20050;-50
2021/09/27 12:23:09;;;;;;;12.95;9.98;;;22.60;99.90;;;;;;5144418;27;20111;-48
2021/09/27 12:25:39;;;;;;;10.90;9.82;;;22.70;99.90;;;;;;5145972;27;20078;-47
2021/09/27 12:28:11;;;;;;;11.25;8.13;;;22.70;99.90;;;;;;5148272;27;20498;-48
2021/09/27 12:30:43;;;;;;;8.40;7.60;;;22.90;99.90;;;;;;5149092;27;20573;-48
2021/09/27 12:33:11;;;;;;;10.13;7.35;;;22.80;99.90;;;;;;5147995;27;20055;-51
2021/09/27 12:35:43;;;;;;;11.43;8.93;;;22.70;99.90;;;;;;5127168;27;20161;-51
2021/09/27 12:38:12;;;;;;;10.13;7.28;;;22.50;99.90;;;;;;5149461;27;20111;-50
2021/09/27 12:40:51;;;;;;;35.42;31.70;;;22.50;99.90;;;;;;5141053;27;20046;-49
2021/09/27 12:43:22;;;;;;;18.42;13.20;;;22.40;99.90;;;;;;5130757;27;20059;-49
2021/09/27 12:45:51;;;;;;;8.73;7.22;;;22.40;99.90;;;;;;5146754;27;20525;-49
2021/09/27 12:48:40;;;;;;;10.68;7.53;;;22.30;99.90;;;;;;5149273;27;20414;-47
2021/09/27 12:51:38;;;;;;;9.55;8.00;;;22.30;99.90;;;;;;5115788;28;20058;-47
2021/09/27 12:54:24;;;;;;;10.02;7.63;;;22.30;99.90;;;;;;5027036;28;20057;-47
2021/09/27 12:56:55;;;;;;;13.95;9.00;;;22.20;99.90;;;;;;5027065;28;20732;-47
2021/09/27 12:59:30;;;;;;;8.35;6.78;;;22.00;99.90;;;;;;5044747;28;20071;-48
2021/09/27 13:02:00;;;;;;;11.88;7.35;;;22.00;99.90;;;;;;5026415;28;20120;-45
2021/09/27 13:04:31;;;;;;;9.15;7.10;;;21.90;99.90;;;;;;5027310;28;20072;-47
2021/09/27 13:07:05;;;;;;;53.15;47.95;;;22.00;99.90;;;;;;5035861;28;20051;-53
2021/09/27 13:09:54;;;;;;;11.57;10.27;;;21.90;99.90;;;;;;5046863;28;20056;-43
2021/09/27 13:12:34;;;;;;;11.80;7.70;;;21.80;99.90;;;;;;5030799;28;20528;-42
2021/09/27 13:15:06;;;;;;;7.72;6.93;;;21.80;99.90;;;;;;5048279;28;20116;-45
2021/09/27 13:18:04;;;;;;;11.05;6.63;;;21.80;99.90;;;;;;5047270;28;20060;-44
2021/09/27 13:20:33;;;;;;;7.25;5.82;;;21.70;99.90;;;;;;5046591;28;20592;-47
2021/09/27 13:23:00;;;;;;;14.20;6.70;;;21.70;99.90;;;;;;5046482;28;20048;-44
2021/09/27 13:25:50;;;;;;;7.45;6.13;;;21.70;99.90;;;;;;5046786;28;20060;-46
2021/09/27 13:28:31;;;;;;;10.70;8.20;;;21.70;99.90;;;;;;5046875;28;20048;-45
2021/09/27 13:31:17;;;;;;;9.03;7.13;;;21.70;99.90;;;;;;5095745;27;20071;-47